Terminal Aerodrome Forecast
Issued by NWS Corpus Christi, TX

Home | Current Version | Previous Version | Text Only | Print | Product List | Glossary On
Versions: 1 2 3 4 5 6 7 8 9 10 11 12 13 14 15 16 17 18 19 20
000
FTUS44 KCRP 232300
TAFCRP
TAF
KCRP 232320Z 2400/2424 14016G23KT P6SM FEW020
     FM240200 15014KT P6SM BKN012
     FM240600 16012KT P6SM OVC009
     FM241500 16012KT P6SM BKN015
     FM241700 15013KT P6SM BKN035=

USA.gov is the U.S. government's official web portal to all federal, state and local government web resources and services.